sensor_id;sensor_type;location;lat;lon;timestamp;P1;durP1;ratioP1;P2;durP2;ratioP2
13032;SDS011;6583;42.632;23.298;2022-08-04T00:02:22;3.30;;;3.10;;
13032;SDS011;6583;42.632;23.298;2022-08-04T00:04:52;3.88;;;3.38;;
13032;SDS011;6583;42.632;23.298;2022-08-04T00:07:25;3.03;;;2.83;;
13032;SDS011;6583;42.632;23.298;2022-08-04T00:09:58;3.40;;;3.15;;
13032;SDS011;6583;42.632;23.298;2022-08-04T00:12:27;3.17;;;2.92;;
13032;SDS011;6583;42.632;23.298;2022-08-04T00:14:59;3.05;;;2.85;;
13032;SDS011;6583;42.632;23.298;2022-08-04T00:17:29;3.20;;;3.00;;
13032;SDS011;6583;42.632;23.298;2022-08-04T00:19:58;3.17;;;2.97;;
13032;SDS011;6583;42.632;23.298;2022-08-04T00:22:27;3.25;;;3.05;;
13032;SDS011;6583;42.632;23.298;2022-08-04T00:24:56;3.08;;;2.88;;
13032;SDS011;6583;42.632;23.298;2022-08-04T00:27:27;3.03;;;2.83;;
13032;SDS011;6583;42.632;23.298;2022-08-04T00:29:54;3.53;;;3.15;;
13032;SDS011;6583;42.632;23.298;2022-08-04T00:32:23;3.38;;;3.08;;
13032;SDS011;6583;42.632;23.298;2022-08-04T00:34:51;3.05;;;2.85;;
13032;SDS011;6583;42.632;23.298;2022-08-04T00:37:20;3.05;;;2.85;;
13032;SDS011;6583;42.632;23.298;2022-08-04T00:39:47;3.95;;;3.38;;
13032;SDS011;6583;42.632;23.298;2022-08-04T00:42:22;3.58;;;2.90;;
13032;SDS011;6583;42.632;23.298;2022-08-04T00:45:02;3.10;;;2.80;;
13032;SDS011;6583;42.632;23.298;2022-08-04T00:47:48;3.10;;;2.90;;
13032;SDS011;6583;42.632;23.298;2022-08-04T00:50:24;2.92;;;2.72;;
13032;SDS011;6583;42.632;23.298;2022-08-04T00:53:05;3.10;;;2.90;;
13032;SDS011;6583;42.632;23.298;2022-08-04T00:58:46;3.40;;;3.10;;
13032;SDS011;6583;42.632;23.298;2022-08-04T01:01:31;3.80;;;2.92;;
13032;SDS011;6583;42.632;23.298;2022-08-04T01:04:12;3.47;;;2.92;;
13032;SDS011;6583;42.632;23.298;2022-08-04T01:06:44;3.00;;;2.80;;
13032;SDS011;6583;42.632;23.298;2022-08-04T01:09:26;3.22;;;3.03;;
13032;SDS011;6583;42.632;23.298;2022-08-04T01:12:29;3.00;;;2.80;;
13032;SDS011;6583;42.632;23.298;2022-08-04T01:15:09;3.00;;;2.80;;
13032;SDS011;6583;42.632;23.298;2022-08-04T01:17:46;2.88;;;2.67;;
13032;SDS011;6583;42.632;23.298;2022-08-04T01:20:24;2.97;;;2.78;;
13032;SDS011;6583;42.632;23.298;2022-08-04T01:26:12;3.60;;;3.00;;
13032;SDS011;6583;42.632;23.298;2022-08-04T01:29:05;3.30;;;3.03;;
13032;SDS011;6583;42.632;23.298;2022-08-04T01:31:34;2.95;;;2.75;;
13032;SDS011;6583;42.632;23.298;2022-08-04T01:34:12;2.90;;;2.70;;
13032;SDS011;6583;42.632;23.298;2022-08-04T01:36:42;3.22;;;2.92;;
13032;SDS011;6583;42.632;23.298;2022-08-04T01:39:11;3.47;;;3.20;;
13032;SDS011;6583;42.632;23.298;2022-08-04T01:41:57;3.50;;;3.20;;
13032;SDS011;6583;42.632;23.298;2022-08-04T01:44:27;3.25;;;3.03;;
13032;SDS011;6583;42.632;23.298;2022-08-04T01:46:54;3.25;;;3.05;;
13032;SDS011;6583;42.632;23.298;2022-08-04T01:49:21;3.58;;;3.20;;
13032;SDS011;6583;42.632;23.298;2022-08-04T01:51:53;3.33;;;3.03;;
13032;SDS011;6583;42.632;23.298;2022-08-04T01:54:21;3.30;;;3.00;;
13032;SDS011;6583;42.632;23.298;2022-08-04T01:56:50;3.75;;;3.15;;
13032;SDS011;6583;42.632;23.298;2022-08-04T01:59:18;3.70;;;3.40;;
13032;SDS011;6583;42.632;23.298;2022-08-04T02:01:47;3.58;;;3.28;;
13032;SDS011;6583;42.632;23.298;2022-08-04T02:04:14;3.40;;;3.20;;
13032;SDS011;6583;42.632;23.298;2022-08-04T02:06:46;3.47;;;3.28;;
13032;SDS011;6583;42.632;23.298;2022-08-04T02:09:21;3.65;;;3.35;;
13032;SDS011;6583;42.632;23.298;2022-08-04T02:11:54;3.63;;;3.33;;
13032;SDS011;6583;42.632;23.298;2022-08-04T02:14:29;3.83;;;3.50;;
13032;SDS011;6583;42.632;23.298;2022-08-04T02:17:10;3.88;;;3.58;;
13032;SDS011;6583;42.632;23.298;2022-08-04T02:19:43;3.47;;;3.22;;
13032;SDS011;6583;42.632;23.298;2022-08-04T02:22:21;3.40;;;3.10;;
13032;SDS011;6583;42.632;23.298;2022-08-04T02:24:52;3.90;;;3.60;;
13032;SDS011;6583;42.632;23.298;2022-08-04T02:27:27;4.28;;;3.45;;
13032;SDS011;6583;42.632;23.298;2022-08-04T02:30:03;3.55;;;3.25;;
13032;SDS011;6583;42.632;23.298;2022-08-04T02:32:32;3.22;;;2.97;;
13032;SDS011;6583;42.632;23.298;2022-08-04T02:35:05;3.47;;;3.17;;
13032;SDS011;6583;42.632;23.298;2022-08-04T02:37:34;3.28;;;3.00;;
13032;SDS011;6583;42.632;23.298;2022-08-04T02:40:03;4.22;;;3.25;;
13032;SDS011;6583;42.632;23.298;2022-08-04T02:42:32;3.13;;;2.92;;
13032;SDS011;6583;42.632;23.298;2022-08-04T02:44:59;3.47;;;3.17;;
13032;SDS011;6583;42.632;23.298;2022-08-04T02:47:27;3.50;;;3.20;;
13032;SDS011;6583;42.632;23.298;2022-08-04T02:49:56;2.95;;;2.75;;
13032;SDS011;6583;42.632;23.298;2022-08-04T02:52:23;3.45;;;3.15;;
13032;SDS011;6583;42.632;23.298;2022-08-04T02:54:52;3.10;;;2.75;;
13032;SDS011;6583;42.632;23.298;2022-08-04T02:57:20;3.50;;;3.20;;
13032;SDS011;6583;42.632;23.298;2022-08-04T02:59:59;3.30;;;3.00;;
13032;SDS011;6583;42.632;23.298;2022-08-04T03:02:33;3.38;;;3.08;;
13032;SDS011;6583;42.632;23.298;2022-08-04T03:05:17;3.08;;;2.88;;
13032;SDS011;6583;42.632;23.298;2022-08-04T03:13:39;3.38;;;3.17;;
13032;SDS011;6583;42.632;23.298;2022-08-04T03:19:48;3.22;;;3.00;;
13032;SDS011;6583;42.632;23.298;2022-08-04T03:22:43;4.88;;;3.20;;
13032;SDS011;6583;42.632;23.298;2022-08-04T03:32:05;3.35;;;3.05;;
13032;SDS011;6583;42.632;23.298;2022-08-04T03:35:00;3.35;;;3.05;;
13032;SDS011;6583;42.632;23.298;2022-08-04T03:37:38;3.10;;;2.90;;
13032;SDS011;6583;42.632;23.298;2022-08-04T03:40:28;3.10;;;2.90;;
13032;SDS011;6583;42.632;23.298;2022-08-04T03:43:24;3.20;;;2.90;;
13032;SDS011;6583;42.632;23.298;2022-08-04T03:46:20;3.95;;;3.20;;
13032;SDS011;6583;42.632;23.298;2022-08-04T03:52:12;3.35;;;3.15;;
13032;SDS011;6583;42.632;23.298;2022-08-04T03:55:32;3.55;;;3.13;;
13032;SDS011;6583;42.632;23.298;2022-08-04T03:58:36;3.45;;;3.15;;
13032;SDS011;6583;42.632;23.298;2022-08-04T04:01:19;3.65;;;3.35;;
13032;SDS011;6583;42.632;23.298;2022-08-04T04:04:02;3.83;;;3.22;;
13032;SDS011;6583;42.632;23.298;2022-08-04T04:07:10;3.40;;;3.10;;
13032;SDS011;6583;42.632;23.298;2022-08-04T04:10:16;3.67;;;3.20;;
13032;SDS011;6583;42.632;23.298;2022-08-04T04:15:58;4.63;;;3.70;;
13032;SDS011;6583;42.632;23.298;2022-08-04T04:18:58;3.60;;;3.30;;
13032;SDS011;6583;42.632;23.298;2022-08-04T04:21:41;8.48;;;3.75;;
13032;SDS011;6583;42.632;23.298;2022-08-04T04:27:33;4.05;;;3.65;;
13032;SDS011;6583;42.632;23.298;2022-08-04T04:30:10;3.58;;;3.10;;
13032;SDS011;6583;42.632;23.298;2022-08-04T04:32:49;3.10;;;2.90;;
13032;SDS011;6583;42.632;23.298;2022-08-04T04:35:36;6.05;;;3.80;;
13032;SDS011;6583;42.632;23.298;2022-08-04T04:38:14;3.28;;;3.08;;
13032;SDS011;6583;42.632;23.298;2022-08-04T04:41:03;3.78;;;3.30;;
13032;SDS011;6583;42.632;23.298;2022-08-04T04:43:46;4.07;;;3.67;;
13032;SDS011;6583;42.632;23.298;2022-08-04T04:46:44;3.80;;;3.50;;
13032;SDS011;6583;42.632;23.298;2022-08-04T04:49:24;4.13;;;3.72;;
13032;SDS011;6583;42.632;23.298;2022-08-04T04:51:57;4.00;;;3.70;;
13032;SDS011;6583;42.632;23.298;2022-08-04T04:54:32;4.88;;;3.72;;
13032;SDS011;6583;42.632;23.298;2022-08-04T04:57:04;4.55;;;3.72;;
13032;SDS011;6583;42.632;23.298;2022-08-04T04:59:37;3.78;;;3.35;;
13032;SDS011;6583;42.632;23.298;2022-08-04T05:02:18;4.65;;;3.35;;
13032;SDS011;6583;42.632;23.298;2022-08-04T05:11:29;4.78;;;3.85;;
13032;SDS011;6583;42.632;23.298;2022-08-04T05:14:21;3.88;;;3.58;;
13032;SDS011;6583;42.632;23.298;2022-08-04T05:16:53;3.95;;;3.60;;
13032;SDS011;6583;42.632;23.298;2022-08-04T05:19:31;4.43;;;4.03;;
13032;SDS011;6583;42.632;23.298;2022-08-04T05:22:09;4.47;;;4.07;;
13032;SDS011;6583;42.632;23.298;2022-08-04T05:24:38;6.50;;;5.82;;
13032;SDS011;6583;42.632;23.298;2022-08-04T05:27:11;6.10;;;5.50;;
13032;SDS011;6583;42.632;23.298;2022-08-04T05:29:42;8.60;;;7.68;;
13032;SDS011;6583;42.632;23.298;2022-08-04T05:32:13;8.40;;;7.60;;
13032;SDS011;6583;42.632;23.298;2022-08-04T05:34:44;7.78;;;7.07;;
13032;SDS011;6583;42.632;23.298;2022-08-04T05:37:18;9.52;;;8.45;;
13032;SDS011;6583;42.632;23.298;2022-08-04T05:39:48;8.57;;;7.72;;
13032;SDS011;6583;42.632;23.298;2022-08-04T05:42:19;8.75;;;7.85;;
13032;SDS011;6583;42.632;23.298;2022-08-04T05:44:47;7.35;;;6.72;;
13032;SDS011;6583;42.632;23.298;2022-08-04T05:47:14;10.18;;;8.07;;
13032;SDS011;6583;42.632;23.298;2022-08-04T05:49:43;8.07;;;7.38;;
13032;SDS011;6583;42.632;23.298;2022-08-04T05:52:11;9.45;;;7.57;;
13032;SDS011;6583;42.632;23.298;2022-08-04T05:54:39;7.93;;;7.13;;
13032;SDS011;6583;42.632;23.298;2022-08-04T05:57:07;7.47;;;6.78;;
13032;SDS011;6583;42.632;23.298;2022-08-04T05:59:36;9.80;;;6.97;;
13032;SDS011;6583;42.632;23.298;2022-08-04T06:02:05;8.63;;;7.07;;
13032;SDS011;6583;42.632;23.298;2022-08-04T06:04:36;7.43;;;6.68;;
13032;SDS011;6583;42.632;23.298;2022-08-04T06:07:06;7.32;;;6.68;;
13032;SDS011;6583;42.632;23.298;2022-08-04T06:09:35;8.38;;;7.57;;
13032;SDS011;6583;42.632;23.298;2022-08-04T06:12:03;10.20;;;9.25;;
13032;SDS011;6583;42.632;23.298;2022-08-04T06:14:35;9.85;;;8.85;;
13032;SDS011;6583;42.632;23.298;2022-08-04T06:17:06;9.30;;;8.35;;
13032;SDS011;6583;42.632;23.298;2022-08-04T06:19:34;9.75;;;8.80;;
13032;SDS011;6583;42.632;23.298;2022-08-04T06:22:06;9.27;;;7.65;;
13032;SDS011;6583;42.632;23.298;2022-08-04T06:24:36;10.63;;;9.60;;
13032;SDS011;6583;42.632;23.298;2022-08-04T06:27:05;11.38;;;10.27;;
13032;SDS011;6583;42.632;23.298;2022-08-04T06:29:33;10.45;;;9.45;;
13032;SDS011;6583;42.632;23.298;2022-08-04T06:32:04;10.25;;;9.20;;
13032;SDS011;6583;42.632;23.298;2022-08-04T06:34:49;10.70;;;9.73;;
13032;SDS011;6583;42.632;23.298;2022-08-04T06:37:19;11.70;;;9.88;;
13032;SDS011;6583;42.632;23.298;2022-08-04T06:39:47;11.00;;;8.90;;
13032;SDS011;6583;42.632;23.298;2022-08-04T06:42:16;10.23;;;9.23;;
13032;SDS011;6583;42.632;23.298;2022-08-04T06:44:45;10.82;;;9.73;;
13032;SDS011;6583;42.632;23.298;2022-08-04T06:47:16;10.63;;;9.52;;
13032;SDS011;6583;42.632;23.298;2022-08-04T06:49:45;11.50;;;9.60;;
13032;SDS011;6583;42.632;23.298;2022-08-04T06:52:14;11.00;;;9.90;;
13032;SDS011;6583;42.632;23.298;2022-08-04T06:54:44;14.10;;;10.13;;
13032;SDS011;6583;42.632;23.298;2022-08-04T06:57:12;11.30;;;10.13;;
13032;SDS011;6583;42.632;23.298;2022-08-04T06:59:42;10.32;;;9.20;;
13032;SDS011;6583;42.632;23.298;2022-08-04T07:02:12;13.65;;;9.88;;
13032;SDS011;6583;42.632;23.298;2022-08-04T07:04:40;12.18;;;10.60;;
13032;SDS011;6583;42.632;23.298;2022-08-04T07:07:07;11.55;;;10.35;;
13032;SDS011;6583;42.632;23.298;2022-08-04T07:09:34;12.85;;;11.45;;
13032;SDS011;6583;42.632;23.298;2022-08-04T07:12:03;11.60;;;10.43;;
13032;SDS011;6583;42.632;23.298;2022-08-04T07:14:31;12.50;;;11.20;;
13032;SDS011;6583;42.632;23.298;2022-08-04T07:17:00;13.43;;;11.52;;
13032;SDS011;6583;42.632;23.298;2022-08-04T07:19:28;13.68;;;10.35;;
13032;SDS011;6583;42.632;23.298;2022-08-04T07:21:56;13.20;;;10.82;;
13032;SDS011;6583;42.632;23.298;2022-08-04T07:24:27;12.00;;;10.80;;
13032;SDS011;6583;42.632;23.298;2022-08-04T07:26:54;11.52;;;10.05;;
13032;SDS011;6583;42.632;23.298;2022-08-04T07:29:23;12.45;;;10.73;;
13032;SDS011;6583;42.632;23.298;2022-08-04T07:31:50;11.55;;;10.25;;
13032;SDS011;6583;42.632;23.298;2022-08-04T07:34:18;12.40;;;11.05;;
13032;SDS011;6583;42.632;23.298;2022-08-04T07:36:45;14.77;;;10.57;;
13032;SDS011;6583;42.632;23.298;2022-08-04T07:39:12;16.02;;;11.73;;
13032;SDS011;6583;42.632;23.298;2022-08-04T07:41:39;12.70;;;11.45;;
13032;SDS011;6583;42.632;23.298;2022-08-04T07:44:08;16.40;;;10.57;;
13032;SDS011;6583;42.632;23.298;2022-08-04T07:46:36;13.63;;;11.13;;
13032;SDS011;6583;42.632;23.298;2022-08-04T07:49:03;11.50;;;10.40;;
13032;SDS011;6583;42.632;23.298;2022-08-04T07:51:31;13.00;;;10.77;;
13032;SDS011;6583;42.632;23.298;2022-08-04T07:53:59;12.15;;;10.93;;
13032;SDS011;6583;42.632;23.298;2022-08-04T07:56:29;12.15;;;10.85;;
13032;SDS011;6583;42.632;23.298;2022-08-04T07:58:56;13.20;;;11.05;;
13032;SDS011;6583;42.632;23.298;2022-08-04T08:01:24;11.63;;;10.43;;
13032;SDS011;6583;42.632;23.298;2022-08-04T08:03:54;11.75;;;10.15;;
13032;SDS011;6583;42.632;23.298;2022-08-04T08:06:22;11.88;;;10.18;;
13032;SDS011;6583;42.632;23.298;2022-08-04T08:08:50;11.30;;;9.18;;
13032;SDS011;6583;42.632;23.298;2022-08-04T08:11:17;10.57;;;9.50;;
13032;SDS011;6583;42.632;23.298;2022-08-04T08:13:44;11.80;;;10.07;;
13032;SDS011;6583;42.632;23.298;2022-08-04T08:16:11;10.93;;;9.82;;
13032;SDS011;6583;42.632;23.298;2022-08-04T08:18:38;11.45;;;9.70;;
13032;SDS011;6583;42.632;23.298;2022-08-04T08:21:07;10.07;;;9.05;;
13032;SDS011;6583;42.632;23.298;2022-08-04T08:23:34;9.90;;;8.98;;
13032;SDS011;6583;42.632;23.298;2022-08-04T08:26:01;8.80;;;8.00;;
13032;SDS011;6583;42.632;23.298;2022-08-04T08:28:30;8.93;;;7.97;;
13032;SDS011;6583;42.632;23.298;2022-08-04T08:30:57;10.43;;;8.70;;
13032;SDS011;6583;42.632;23.298;2022-08-04T08:33:24;8.68;;;7.53;;
13032;SDS011;6583;42.632;23.298;2022-08-04T08:35:51;8.65;;;7.78;;
13032;SDS011;6583;42.632;23.298;2022-08-04T08:38:32;11.13;;;8.02;;
13032;SDS011;6583;42.632;23.298;2022-08-04T08:41:21;7.28;;;6.57;;
13032;SDS011;6583;42.632;23.298;2022-08-04T08:44:26;8.25;;;6.30;;
13032;SDS011;6583;42.632;23.298;2022-08-04T08:47:11;9.73;;;6.15;;
13032;SDS011;6583;42.632;23.298;2022-08-04T08:49:48;6.45;;;5.80;;
13032;SDS011;6583;42.632;23.298;2022-08-04T08:55:53;6.63;;;5.93;;
13032;SDS011;6583;42.632;23.298;2022-08-04T08:58:43;7.60;;;6.10;;
13032;SDS011;6583;42.632;23.298;2022-08-04T09:01:27;6.00;;;5.40;;
13032;SDS011;6583;42.632;23.298;2022-08-04T09:07:20;7.70;;;6.43;;
13032;SDS011;6583;42.632;23.298;2022-08-04T09:10:02;6.22;;;5.55;;
13032;SDS011;6583;42.632;23.298;2022-08-04T09:12:38;7.70;;;5.30;;
13032;SDS011;6583;42.632;23.298;2022-08-04T09:15:11;8.40;;;5.80;;
13032;SDS011;6583;42.632;23.298;2022-08-04T09:17:42;8.07;;;5.55;;
13032;SDS011;6583;42.632;23.298;2022-08-04T09:20:15;6.95;;;5.72;;
13032;SDS011;6583;42.632;23.298;2022-08-04T09:22:49;6.03;;;5.35;;
13032;SDS011;6583;42.632;23.298;2022-08-04T09:25:19;7.97;;;5.93;;
13032;SDS011;6583;42.632;23.298;2022-08-04T09:27:52;5.90;;;5.40;;
13032;SDS011;6583;42.632;23.298;2022-08-04T09:30:20;6.55;;;5.85;;
13032;SDS011;6583;42.632;23.298;2022-08-04T09:32:55;5.97;;;5.47;;
13032;SDS011;6583;42.632;23.298;2022-08-04T09:35:32;4.90;;;4.40;;
13032;SDS011;6583;42.632;23.298;2022-08-04T09:38:05;4.68;;;4.25;;
13032;SDS011;6583;42.632;23.298;2022-08-04T09:40:44;3.90;;;3.58;;
13032;SDS011;6583;42.632;23.298;2022-08-04T09:43:19;3.97;;;3.67;;
13032;SDS011;6583;42.632;23.298;2022-08-04T09:45:56;3.67;;;3.38;;
13032;SDS011;6583;42.632;23.298;2022-08-04T09:48:31;3.80;;;3.50;;
13032;SDS011;6583;42.632;23.298;2022-08-04T09:51:04;3.70;;;3.50;;
13032;SDS011;6583;42.632;23.298;2022-08-04T09:53:43;3.45;;;3.25;;
13032;SDS011;6583;42.632;23.298;2022-08-04T09:56:19;3.45;;;3.17;;
13032;SDS011;6583;42.632;23.298;2022-08-04T09:58:55;3.50;;;3.20;;
13032;SDS011;6583;42.632;23.298;2022-08-04T10:01:31;3.70;;;3.40;;
13032;SDS011;6583;42.632;23.298;2022-08-04T10:04:00;4.75;;;3.72;;
13032;SDS011;6583;42.632;23.298;2022-08-04T10:06:33;3.53;;;3.33;;
13032;SDS011;6583;42.632;23.298;2022-08-04T10:09:11;4.03;;;3.17;;
13032;SDS011;6583;42.632;23.298;2022-08-04T10:11:51;5.78;;;3.10;;
13032;SDS011;6583;42.632;23.298;2022-08-04T10:14:37;3.40;;;3.10;;
13032;SDS011;6583;42.632;23.298;2022-08-04T10:20:13;4.38;;;3.72;;
13032;SDS011;6583;42.632;23.298;2022-08-04T10:22:47;5.15;;;3.70;;
13032;SDS011;6583;42.632;23.298;2022-08-04T10:25:23;4.40;;;3.80;;
13032;SDS011;6583;42.632;23.298;2022-08-04T10:28:05;3.75;;;3.45;;
13032;SDS011;6583;42.632;23.298;2022-08-04T10:30:39;4.65;;;3.38;;
13032;SDS011;6583;42.632;23.298;2022-08-04T10:33:17;4.10;;;3.80;;
13032;SDS011;6583;42.632;23.298;2022-08-04T10:35:49;4.20;;;3.90;;
13032;SDS011;6583;42.632;23.298;2022-08-04T10:38:19;4.10;;;3.80;;
13032;SDS011;6583;42.632;23.298;2022-08-04T10:40:53;3.88;;;3.58;;
13032;SDS011;6583;42.632;23.298;2022-08-04T10:43:29;3.80;;;3.50;;
13032;SDS011;6583;42.632;23.298;2022-08-04T10:46:09;3.50;;;3.30;;
13032;SDS011;6583;42.632;23.298;2022-08-04T10:48:40;3.13;;;2.90;;
13032;SDS011;6583;42.632;23.298;2022-08-04T10:51:13;2.83;;;2.63;;
13032;SDS011;6583;42.632;23.298;2022-08-04T10:53:45;3.70;;;3.25;;
13032;SDS011;6583;42.632;23.298;2022-08-04T10:56:17;3.08;;;2.88;;
13032;SDS011;6583;42.632;23.298;2022-08-04T10:58:49;3.20;;;3.00;;
13032;SDS011;6583;42.632;23.298;2022-08-04T11:01:23;3.15;;;2.83;;
13032;SDS011;6583;42.632;23.298;2022-08-04T11:03:55;3.50;;;3.22;;
13032;SDS011;6583;42.632;23.298;2022-08-04T11:06:25;3.35;;;3.15;;
13032;SDS011;6583;42.632;23.298;2022-08-04T11:08:53;3.40;;;3.10;;
13032;SDS011;6583;42.632;23.298;2022-08-04T11:11:22;3.17;;;2.97;;
13032;SDS011;6583;42.632;23.298;2022-08-04T11:13:56;3.63;;;3.30;;
13032;SDS011;6583;42.632;23.298;2022-08-04T11:16:31;3.45;;;3.15;;
13032;SDS011;6583;42.632;23.298;2022-08-04T11:19:05;3.30;;;3.00;;
13032;SDS011;6583;42.632;23.298;2022-08-04T11:21:41;3.58;;;3.28;;
13032;SDS011;6583;42.632;23.298;2022-08-04T11:24:12;3.35;;;3.10;;
13032;SDS011;6583;42.632;23.298;2022-08-04T11:26:45;3.72;;;3.40;;
13032;SDS011;6583;42.632;23.298;2022-08-04T11:29:18;3.50;;;3.30;;
13032;SDS011;6583;42.632;23.298;2022-08-04T11:31:53;3.25;;;3.05;;
13032;SDS011;6583;42.632;23.298;2022-08-04T11:34:24;3.17;;;2.90;;
13032;SDS011;6583;42.632;23.298;2022-08-04T11:36:54;3.53;;;3.33;;
13032;SDS011;6583;42.632;23.298;2022-08-04T11:39:28;3.33;;;3.13;;
13032;SDS011;6583;42.632;23.298;2022-08-04T11:42:03;3.75;;;3.33;;
13032;SDS011;6583;42.632;23.298;2022-08-04T11:44:35;3.72;;;3.38;;
13032;SDS011;6583;42.632;23.298;2022-08-04T11:47:10;3.00;;;2.80;;
13032;SDS011;6583;42.632;23.298;2022-08-04T11:49:48;3.45;;;3.15;;
13032;SDS011;6583;42.632;23.298;2022-08-04T11:52:19;3.70;;;3.40;;
13032;SDS011;6583;42.632;23.298;2022-08-04T11:54:47;3.70;;;3.40;;
13032;SDS011;6583;42.632;23.298;2022-08-04T11:57:16;4.78;;;3.63;;
13032;SDS011;6583;42.632;23.298;2022-08-04T11:59:42;3.90;;;3.60;;
13032;SDS011;6583;42.632;23.298;2022-08-04T12:02:22;3.72;;;3.28;;
13032;SDS011;6583;42.632;23.298;2022-08-04T12:05:03;3.78;;;3.38;;
13032;SDS011;6583;42.632;23.298;2022-08-04T12:07:41;3.55;;;3.35;;
13032;SDS011;6583;42.632;23.298;2022-08-04T12:10:21;4.10;;;3.70;;
13032;SDS011;6583;42.632;23.298;2022-08-04T12:12:59;3.90;;;3.60;;
13032;SDS011;6583;42.632;23.298;2022-08-04T12:15:35;3.50;;;3.20;;
13032;SDS011;6583;42.632;23.298;2022-08-04T12:18:20;3.60;;;3.30;;
13032;SDS011;6583;42.632;23.298;2022-08-04T12:20:50;3.90;;;3.60;;
13032;SDS011;6583;42.632;23.298;2022-08-04T12:23:23;3.70;;;3.35;;
13032;SDS011;6583;42.632;23.298;2022-08-04T12:25:52;3.80;;;3.50;;
13032;SDS011;6583;42.632;23.298;2022-08-04T12:28:23;4.03;;;3.63;;
13032;SDS011;6583;42.632;23.298;2022-08-04T12:31:02;3.92;;;3.63;;
13032;SDS011;6583;42.632;23.298;2022-08-04T12:33:39;3.53;;;3.33;;
13032;SDS011;6583;42.632;23.298;2022-08-04T12:36:16;4.07;;;3.55;;
13032;SDS011;6583;42.632;23.298;2022-08-04T12:38:48;4.13;;;3.83;;
13032;SDS011;6583;42.632;23.298;2022-08-04T12:41:21;3.70;;;3.40;;
13032;SDS011;6583;42.632;23.298;2022-08-04T12:43:51;3.80;;;3.50;;
13032;SDS011;6583;42.632;23.298;2022-08-04T12:46:21;5.15;;;3.55;;
13032;SDS011;6583;42.632;23.298;2022-08-04T12:48:51;3.97;;;3.67;;
13032;SDS011;6583;42.632;23.298;2022-08-04T12:51:24;3.30;;;3.10;;
13032;SDS011;6583;42.632;23.298;2022-08-04T12:53:52;4.13;;;3.28;;
13032;SDS011;6583;42.632;23.298;2022-08-04T12:56:23;5.93;;;3.65;;
13032;SDS011;6583;42.632;23.298;2022-08-04T12:58:52;3.72;;;3.42;;
13032;SDS011;6583;42.632;23.298;2022-08-04T13:01:26;3.70;;;3.40;;
13032;SDS011;6583;42.632;23.298;2022-08-04T13:03:55;3.60;;;3.40;;
13032;SDS011;6583;42.632;23.298;2022-08-04T13:06:26;3.60;;;3.40;;
13032;SDS011;6583;42.632;23.298;2022-08-04T13:08:55;4.80;;;3.33;;
13032;SDS011;6583;42.632;23.298;2022-08-04T13:11:33;3.80;;;3.42;;
13032;SDS011;6583;42.632;23.298;2022-08-04T13:14:02;3.78;;;3.47;;
13032;SDS011;6583;42.632;23.298;2022-08-04T13:16:31;3.58;;;3.38;;
13032;SDS011;6583;42.632;23.298;2022-08-04T13:19:00;3.60;;;3.30;;
13032;SDS011;6583;42.632;23.298;2022-08-04T13:21:28;3.50;;;3.20;;
13032;SDS011;6583;42.632;23.298;2022-08-04T13:23:56;4.00;;;3.60;;
13032;SDS011;6583;42.632;23.298;2022-08-04T13:26:28;4.07;;;3.55;;
13032;SDS011;6583;42.632;23.298;2022-08-04T13:28:57;3.53;;;3.33;;
13032;SDS011;6583;42.632;23.298;2022-08-04T13:31:27;3.50;;;3.25;;
13032;SDS011;6583;42.632;23.298;2022-08-04T13:34:00;3.33;;;3.03;;
13032;SDS011;6583;42.632;23.298;2022-08-04T13:36:31;3.35;;;3.15;;
13032;SDS011;6583;42.632;23.298;2022-08-04T13:39:02;3.40;;;3.20;;
13032;SDS011;6583;42.632;23.298;2022-08-04T13:41:33;3.70;;;3.50;;
13032;SDS011;6583;42.632;23.298;2022-08-04T13:44:01;3.75;;;3.42;;
13032;SDS011;6583;42.632;23.298;2022-08-04T13:46:36;3.50;;;3.30;;
13032;SDS011;6583;42.632;23.298;2022-08-04T13:49:08;4.30;;;3.50;;
13032;SDS011;6583;42.632;23.298;2022-08-04T13:51:38;3.70;;;3.50;;
13032;SDS011;6583;42.632;23.298;2022-08-04T13:54:05;3.45;;;3.20;;
13032;SDS011;6583;42.632;23.298;2022-08-04T13:56:33;3.72;;;3.42;;
13032;SDS011;6583;42.632;23.298;2022-08-04T13:59:05;3.38;;;3.17;;
13032;SDS011;6583;42.632;23.298;2022-08-04T14:01:35;4.72;;;3.40;;
13032;SDS011;6583;42.632;23.298;2022-08-04T14:04:11;3.53;;;3.33;;
13032;SDS011;6583;42.632;23.298;2022-08-04T14:06:44;3.88;;;3.58;;
13032;SDS011;6583;42.632;23.298;2022-08-04T14:09:16;3.67;;;3.38;;
13032;SDS011;6583;42.632;23.298;2022-08-04T14:11:45;3.35;;;3.15;;
13032;SDS011;6583;42.632;23.298;2022-08-04T14:14:14;3.40;;;3.20;;
13032;SDS011;6583;42.632;23.298;2022-08-04T14:17:02;3.53;;;3.33;;
13032;SDS011;6583;42.632;23.298;2022-08-04T14:22:26;3.35;;;3.05;;
13032;SDS011;6583;42.632;23.298;2022-08-04T14:24:54;3.20;;;3.00;;
13032;SDS011;6583;42.632;23.298;2022-08-04T14:27:22;3.83;;;3.40;;
13032;SDS011;6583;42.632;23.298;2022-08-04T14:29:49;3.80;;;3.55;;
13032;SDS011;6583;42.632;23.298;2022-08-04T14:32:16;3.08;;;2.88;;
13032;SDS011;6583;42.632;23.298;2022-08-04T14:34:43;3.72;;;3.42;;
13032;SDS011;6583;42.632;23.298;2022-08-04T14:37:12;3.30;;;3.10;;
13032;SDS011;6583;42.632;23.298;2022-08-04T14:39:41;3.03;;;2.83;;
13032;SDS011;6583;42.632;23.298;2022-08-04T14:42:11;3.70;;;3.40;;
13032;SDS011;6583;42.632;23.298;2022-08-04T14:44:50;3.22;;;2.92;;
13032;SDS011;6583;42.632;23.298;2022-08-04T14:47:27;3.95;;;3.58;;
13032;SDS011;6583;42.632;23.298;2022-08-04T14:50:04;3.38;;;3.10;;
13032;SDS011;6583;42.632;23.298;2022-08-04T14:52:33;3.58;;;3.35;;
13032;SDS011;6583;42.632;23.298;2022-08-04T14:55:13;4.28;;;3.60;;
13032;SDS011;6583;42.632;23.298;2022-08-04T14:57:41;3.80;;;3.13;;
13032;SDS011;6583;42.632;23.298;2022-08-04T15:00:08;2.97;;;2.78;;
13032;SDS011;6583;42.632;23.298;2022-08-04T15:02:35;3.72;;;3.50;;
13032;SDS011;6583;42.632;23.298;2022-08-04T15:05:04;3.30;;;3.10;;
13032;SDS011;6583;42.632;23.298;2022-08-04T15:07:31;3.70;;;3.40;;
13032;SDS011;6583;42.632;23.298;2022-08-04T15:09:59;3.80;;;3.50;;
13032;SDS011;6583;42.632;23.298;2022-08-04T15:12:26;4.00;;;3.60;;
13032;SDS011;6583;42.632;23.298;2022-08-04T15:14:53;3.97;;;3.50;;
13032;SDS011;6583;42.632;23.298;2022-08-04T15:17:21;4.22;;;3.80;;
13032;SDS011;6583;42.632;23.298;2022-08-04T15:19:48;4.10;;;3.70;;
13032;SDS011;6583;42.632;23.298;2022-08-04T15:22:15;4.28;;;3.88;;
13032;SDS011;6583;42.632;23.298;2022-08-04T15:24:42;3.45;;;3.20;;
13032;SDS011;6583;42.632;23.298;2022-08-04T15:27:10;3.50;;;3.30;;
13032;SDS011;6583;42.632;23.298;2022-08-04T15:29:39;3.90;;;3.42;;
13032;SDS011;6583;42.632;23.298;2022-08-04T15:32:10;3.75;;;3.45;;
13032;SDS011;6583;42.632;23.298;2022-08-04T15:34:44;3.67;;;3.38;;
13032;SDS011;6583;42.632;23.298;2022-08-04T15:37:12;3.97;;;3.40;;
13032;SDS011;6583;42.632;23.298;2022-08-04T15:39:43;4.38;;;4.07;;
13032;SDS011;6583;42.632;23.298;2022-08-04T15:42:17;3.90;;;3.55;;
13032;SDS011;6583;42.632;23.298;2022-08-04T15:44:57;3.80;;;3.47;;
13032;SDS011;6583;42.632;23.298;2022-08-04T15:48:21;4.15;;;3.42;;
13032;SDS011;6583;42.632;23.298;2022-08-04T15:50:59;6.85;;;4.10;;
13032;SDS011;6583;42.632;23.298;2022-08-04T15:53:35;3.90;;;3.60;;
13032;SDS011;6583;42.632;23.298;2022-08-04T15:56:45;3.88;;;3.45;;
13032;SDS011;6583;42.632;23.298;2022-08-04T15:59:14;3.80;;;3.50;;
13032;SDS011;6583;42.632;23.298;2022-08-04T16:01:41;4.10;;;3.70;;
13032;SDS011;6583;42.632;23.298;2022-08-04T16:04:21;3.70;;;3.40;;
13032;SDS011;6583;42.632;23.298;2022-08-04T16:06:50;4.47;;;3.70;;
13032;SDS011;6583;42.632;23.298;2022-08-04T16:09:21;3.72;;;3.42;;
13032;SDS011;6583;42.632;23.298;2022-08-04T16:11:51;4.03;;;3.40;;
13032;SDS011;6583;42.632;23.298;2022-08-04T16:17:14;4.22;;;3.80;;
13032;SDS011;6583;42.632;23.298;2022-08-04T16:19:51;4.22;;;3.83;;